createdAt,value
2023-07-06T00:00:16.431Z,16.40
2023-07-06T00:02:44.112Z,16.50
2023-07-06T00:05:11.038Z,16.40
2023-07-06T00:07:37.907Z,16.40
2023-07-06T00:10:06.034Z,16.50
2023-07-06T00:12:32.855Z,16.40
2023-07-06T00:14:59.609Z,16.40
2023-07-06T00:17:26.402Z,16.40
2023-07-06T00:19:53.164Z,16.30
2023-07-06T00:22:20.500Z,16.30
2023-07-06T00:24:49.216Z,16.30
2023-07-06T00:27:18.982Z,16.30
2023-07-06T00:29:57.810Z,16.30
2023-07-06T00:32:29.401Z,16.30
2023-07-06T00:34:56.768Z,16.20
2023-07-06T00:37:24.121Z,16.10
2023-07-06T00:39:51.230Z,16.20
2023-07-06T00:42:19.335Z,16.20
2023-07-06T00:44:47.788Z,16.00
2023-07-06T00:47:14.561Z,16.00
2023-07-06T00:49:41.834Z,16.00
2023-07-06T00:52:08.835Z,16.10
2023-07-06T00:54:38.825Z,16.10
2023-07-06T00:57:05.729Z,16.10
2023-07-06T00:59:34.385Z,16.10
2023-07-06T01:02:01.317Z,16.00
2023-07-06T01:04:29.457Z,16.10
2023-07-06T01:06:56.309Z,16.10
2023-07-06T01:09:24.987Z,16.00
2023-07-06T01:11:52.408Z,16.10
2023-07-06T01:14:19.179Z,16.10
2023-07-06T01:16:57.502Z,16.00
2023-07-06T01:19:30.175Z,16.00
2023-07-06T01:21:59.840Z,16.00
2023-07-06T01:24:26.832Z,16.00
2023-07-06T01:27:09.055Z,16.10
2023-07-06T01:29:41.947Z,16.00
2023-07-06T01:32:22.815Z,16.00
2023-07-06T01:35:08.405Z,16.00
2023-07-06T01:37:39.829Z,16.00
2023-07-06T01:40:10.916Z,16.00
2023-07-06T01:42:42.194Z,16.10
2023-07-06T01:45:10.540Z,16.00
2023-07-06T01:47:41.390Z,16.10
2023-07-06T01:50:10.292Z,16.00
2023-07-06T01:52:45.336Z,16.00
2023-07-06T01:55:27.241Z,16.10
2023-07-06T01:58:05.171Z,16.10
2023-07-06T02:00:32.519Z,16.00
2023-07-06T02:03:00.143Z,16.10
2023-07-06T02:05:28.188Z,16.10
2023-07-06T02:07:54.975Z,16.10
2023-07-06T02:10:23.306Z,16.00
2023-07-06T02:12:50.319Z,16.00
2023-07-06T02:15:20.392Z,16.10
2023-07-06T02:17:47.848Z,16.10
2023-07-06T02:20:16.295Z,16.10
2023-07-06T02:22:46.277Z,16.10
2023-07-06T02:25:13.744Z,16.10
2023-07-06T02:27:40.914Z,16.20
2023-07-06T02:30:08.854Z,16.30
2023-07-06T02:32:36.377Z,16.30
2023-07-06T02:35:03.898Z,16.40
2023-07-06T02:37:31.205Z,16.40
2023-07-06T02:40:00.142Z,16.50
2023-07-06T02:42:27.437Z,16.50
2023-07-06T02:44:55.068Z,16.50
2023-07-06T02:47:23.166Z,16.50
2023-07-06T02:49:50.166Z,16.50
2023-07-06T02:52:16.928Z,16.60
2023-07-06T02:54:43.753Z,16.50
2023-07-06T02:57:10.537Z,16.60
2023-07-06T02:59:38.581Z,16.70
2023-07-06T03:02:06.115Z,16.70
2023-07-06T03:04:33.307Z,16.80
2023-07-06T03:07:00.259Z,16.80
2023-07-06T03:09:27.815Z,16.80
2023-07-06T03:11:54.576Z,17.00
2023-07-06T03:14:25.884Z,17.10
2023-07-06T03:16:55.598Z,17.20
2023-07-06T03:19:22.730Z,17.40
2023-07-06T03:21:49.929Z,17.70
2023-07-06T03:24:19.430Z,18.10
2023-07-06T03:26:46.480Z,18.30
2023-07-06T03:29:13.637Z,18.40
2023-07-06T03:31:40.714Z,18.40
2023-07-06T03:34:07.713Z,18.60
2023-07-06T03:36:35.215Z,18.50
2023-07-06T03:39:02.464Z,18.20
2023-07-06T03:41:29.358Z,18.10
2023-07-06T03:43:59.676Z,17.90
2023-07-06T03:46:27.506Z,17.60
2023-07-06T03:48:54.253Z,17.60
2023-07-06T03:51:21.011Z,17.50
2023-07-06T03:53:48.899Z,17.50
2023-07-06T03:56:16.677Z,17.50
2023-07-06T03:58:43.760Z,17.40
2023-07-06T04:01:10.601Z,17.50
2023-07-06T04:03:37.518Z,17.60
2023-07-06T04:06:05.032Z,17.70
2023-07-06T04:08:33.108Z,17.80
2023-07-06T04:10:59.855Z,17.70
2023-07-06T04:13:26.729Z,17.70
2023-07-06T04:15:53.905Z,17.60
2023-07-06T04:18:21.144Z,17.60
2023-07-06T04:20:49.409Z,17.50
2023-07-06T04:23:16.736Z,17.50
2023-07-06T04:25:44.168Z,17.50
2023-07-06T04:28:15.400Z,17.30
2023-07-06T04:30:46.044Z,17.40
2023-07-06T04:33:17.392Z,17.40
2023-07-06T04:35:44.510Z,17.50
2023-07-06T04:38:11.787Z,17.70
2023-07-06T04:40:39.382Z,17.80
2023-07-06T04:43:06.137Z,18.00
2023-07-06T04:45:33.057Z,18.20
2023-07-06T04:48:00.038Z,18.40
2023-07-06T04:50:27.242Z,18.50
2023-07-06T04:52:58.602Z,18.80
2023-07-06T04:55:26.989Z,18.90
2023-07-06T04:57:56.996Z,18.80
2023-07-06T05:00:26.107Z,18.80
2023-07-06T05:02:57.083Z,18.70
2023-07-06T05:05:24.022Z,18.70
2023-07-06T05:07:51.794Z,19.00
2023-07-06T05:10:18.597Z,19.20
2023-07-06T05:12:45.537Z,19.50
2023-07-06T05:15:12.724Z,19.70
2023-07-06T05:17:39.978Z,19.70
2023-07-06T05:20:16.962Z,19.60
2023-07-06T05:22:44.285Z,19.60
2023-07-06T05:25:11.784Z,19.40
2023-07-06T05:27:38.730Z,19.30
2023-07-06T05:30:06.373Z,19.40
2023-07-06T05:32:33.440Z,19.50
2023-07-06T05:35:00.237Z,19.60
2023-07-06T05:37:35.355Z,19.50
2023-07-06T05:40:05.828Z,19.50
2023-07-06T05:42:33.012Z,19.30
2023-07-06T05:44:59.812Z,19.30
2023-07-06T05:47:28.259Z,19.40
2023-07-06T05:49:55.146Z,19.40
2023-07-06T05:52:22.019Z,19.30
2023-07-06T05:54:48.859Z,19.20
2023-07-06T05:57:18.014Z,19.20
2023-07-06T05:59:46.581Z,19.10
2023-07-06T06:02:16.956Z,18.90
2023-07-06T06:04:44.041Z,18.70
2023-07-06T06:07:10.840Z,18.40
2023-07-06T06:09:37.600Z,18.00
2023-07-06T06:12:05.836Z,17.70
2023-07-06T06:14:33.434Z,17.30
2023-07-06T06:17:00.214Z,17.20
2023-07-06T06:19:27.866Z,16.90
2023-07-06T06:21:54.778Z,16.90
2023-07-06T06:24:23.226Z,16.70
2023-07-06T06:26:50.510Z,16.70
2023-07-06T06:29:18.341Z,16.70
2023-07-06T06:31:45.533Z,16.60
2023-07-06T06:34:12.469Z,16.60
2023-07-06T06:36:39.470Z,16.60
2023-07-06T06:39:07.821Z,16.60
2023-07-06T06:41:34.551Z,16.50
2023-07-06T06:44:02.203Z,16.50
2023-07-06T06:46:29.136Z,16.60
2023-07-06T06:48:55.926Z,16.70
2023-07-06T06:51:22.658Z,16.60
2023-07-06T06:53:49.490Z,16.60
2023-07-06T06:56:16.445Z,16.50
2023-07-06T06:58:45.128Z,16.40
2023-07-06T07:01:12.313Z,16.20
2023-07-06T07:03:39.193Z,16.20
2023-07-06T07:06:12.628Z,16.10
2023-07-06T07:08:40.772Z,16.00
2023-07-06T07:11:22.368Z,15.90
2023-07-06T07:13:51.511Z,15.90
2023-07-06T07:16:18.737Z,15.90
2023-07-06T07:18:46.347Z,15.80
2023-07-06T07:21:14.360Z,15.80
2023-07-06T07:23:45.476Z,15.90
2023-07-06T07:26:13.742Z,15.80
2023-07-06T07:28:41.278Z,15.90
2023-07-06T07:31:09.085Z,15.90
2023-07-06T07:33:35.919Z,15.90
2023-07-06T07:36:03.638Z,16.00
2023-07-06T07:38:30.391Z,15.90
2023-07-06T07:41:01.534Z,16.00
2023-07-06T07:43:33.411Z,16.10
2023-07-06T07:46:02.673Z,16.30
2023-07-06T07:48:29.650Z,16.30
2023-07-06T07:51:02.161Z,16.30
2023-07-06T07:53:31.331Z,16.30
2023-07-06T07:55:58.689Z,16.20
2023-07-06T07:58:25.954Z,16.30
2023-07-06T08:00:53.704Z,16.40
2023-07-06T08:03:22.504Z,16.30
2023-07-06T08:05:51.967Z,16.50
2023-07-06T08:08:18.707Z,16.60
2023-07-06T08:10:46.364Z,16.70
2023-07-06T08:13:13.356Z,16.70
2023-07-06T08:15:40.722Z,16.70
2023-07-06T08:18:07.646Z,16.70
2023-07-06T08:21:05.406Z,16.80
2023-07-06T08:23:23.004Z,16.70
2023-07-06T08:25:52.504Z,16.90
2023-07-06T08:28:21.456Z,17.00
2023-07-06T08:30:50.159Z,17.10
2023-07-06T08:33:17.232Z,17.20
2023-07-06T08:35:45.374Z,17.50
2023-07-06T08:38:12.819Z,17.60
2023-07-06T08:40:41.319Z,17.70
2023-07-06T08:43:20.996Z,17.70
2023-07-06T08:45:50.304Z,17.70
2023-07-06T08:48:18.674Z,17.60
2023-07-06T08:50:50.023Z,17.60
2023-07-06T08:53:16.895Z,17.60
2023-07-06T08:55:44.539Z,17.90
2023-07-06T08:58:30.666Z,18.00
2023-07-06T09:01:04.046Z,18.30
2023-07-06T09:03:37.136Z,19.20
2023-07-06T09:06:04.167Z,19.30
2023-07-06T09:08:30.895Z,19.50
2023-07-06T09:11:05.918Z,19.30
2023-07-06T09:13:44.549Z,18.90
2023-07-06T09:16:11.434Z,18.70
2023-07-06T09:18:38.387Z,18.90
2023-07-06T09:21:05.752Z,19.10
2023-07-06T09:23:32.618Z,19.10
2023-07-06T09:25:59.595Z,19.30
2023-07-06T09:28:30.711Z,19.60
2023-07-06T09:31:16.089Z,19.60
2023-07-06T09:33:44.132Z,19.80
2023-07-06T09:36:14.329Z,19.90
2023-07-06T09:38:44.895Z,20.00
2023-07-06T09:41:22.244Z,20.00
2023-07-06T09:46:17.280Z,20.60
2023-07-06T09:48:44.020Z,20.70
2023-07-06T09:51:12.934Z,20.70
2023-07-06T09:53:46.383Z,20.80
2023-07-06T09:56:14.283Z,21.10
2023-07-06T09:58:42.771Z,21.30
2023-07-06T10:01:18.717Z,21.40
2023-07-06T10:03:53.286Z,21.50
2023-07-06T10:06:26.630Z,21.90
2023-07-06T10:11:24.134Z,22.10
2023-07-06T10:13:57.748Z,22.20
2023-07-06T10:16:44.855Z,22.30
2023-07-06T10:19:17.825Z,22.50
2023-07-06T10:21:52.659Z,22.40
2023-07-06T10:24:29.589Z,22.20
2023-07-06T10:27:01.173Z,21.80
2023-07-06T10:29:35.240Z,21.10
2023-07-06T10:32:06.048Z,20.90
2023-07-06T10:34:42.753Z,20.90
2023-07-06T10:37:12.862Z,21.00
2023-07-06T10:39:44.285Z,20.90
2023-07-06T10:42:21.049Z,21.10
2023-07-06T10:44:52.020Z,20.90
2023-07-06T10:47:33.816Z,21.10
2023-07-06T10:50:09.981Z,21.20
2023-07-06T10:52:38.459Z,21.30
2023-07-06T10:55:31.955Z,21.30
2023-07-06T10:58:07.631Z,21.20
2023-07-06T11:00:36.847Z,21.40
2023-07-06T11:03:04.835Z,21.70
2023-07-06T11:05:37.142Z,21.80
2023-07-06T11:08:06.421Z,21.80
2023-07-06T11:10:38.355Z,21.60
2023-07-06T11:13:09.999Z,21.40
2023-07-06T11:15:36.755Z,21.50
2023-07-06T11:18:12.272Z,21.30
2023-07-06T11:20:39.285Z,21.20
2023-07-06T11:23:12.813Z,21.30
2023-07-06T11:25:41.114Z,21.20
2023-07-06T11:28:11.252Z,20.80
2023-07-06T11:30:58.495Z,20.80
2023-07-06T11:33:31.944Z,20.60
2023-07-06T11:36:08.038Z,20.70
2023-07-06T11:38:39.131Z,20.60
2023-07-06T11:41:12.020Z,20.70
2023-07-06T11:43:50.743Z,20.80
2023-07-06T11:46:37.573Z,21.00
2023-07-06T11:49:23.184Z,21.10
2023-07-06T11:51:50.661Z,21.30
2023-07-06T11:55:00.892Z,21.50
2023-07-06T11:57:44.238Z,22.00
2023-07-06T12:00:28.391Z,22.70
2023-07-06T12:02:58.999Z,22.90
2023-07-06T12:05:32.896Z,23.50
2023-07-06T12:08:01.353Z,25.30
2023-07-06T12:10:33.357Z,25.40
2023-07-06T12:13:00.437Z,25.20
2023-07-06T12:15:27.463Z,24.70
2023-07-06T12:17:57.413Z,24.50
2023-07-06T12:20:27.593Z,24.10
2023-07-06T12:22:55.199Z,23.60
2023-07-06T12:25:25.231Z,23.10
2023-07-06T12:28:02.280Z,22.60
2023-07-06T12:30:30.352Z,22.50
2023-07-06T12:32:57.202Z,22.70
2023-07-06T12:35:24.530Z,22.60
2023-07-06T12:37:56.619Z,22.50
2023-07-06T12:40:26.563Z,22.30
2023-07-06T12:42:56.436Z,22.40
2023-07-06T12:45:24.079Z,22.10
2023-07-06T12:47:58.613Z,21.80
2023-07-06T12:50:30.705Z,21.60
2023-07-06T12:53:04.305Z,21.80
2023-07-06T12:55:34.200Z,22.00
2023-07-06T12:58:17.376Z,22.10
2023-07-06T13:00:48.520Z,22.10
2023-07-06T13:03:15.437Z,22.30
2023-07-06T13:05:52.051Z,22.80
2023-07-06T13:08:21.251Z,23.40
2023-07-06T13:10:56.806Z,24.20
2023-07-06T13:13:23.746Z,24.60
2023-07-06T13:15:57.054Z,24.80
2023-07-06T13:18:26.753Z,24.80
2023-07-06T13:20:54.818Z,24.90
2023-07-06T13:23:21.811Z,24.60
2023-07-06T13:25:50.899Z,24.40
2023-07-06T13:28:21.675Z,24.10
2023-07-06T13:30:49.170Z,24.60
2023-07-06T13:33:17.861Z,24.70
2023-07-06T13:35:48.261Z,24.70
2023-07-06T13:38:15.278Z,24.70
2023-07-06T13:40:42.700Z,24.50
2023-07-06T13:43:14.518Z,24.30
2023-07-06T13:45:42.254Z,24.30
2023-07-06T13:48:09.554Z,24.10
2023-07-06T13:50:37.963Z,24.00
2023-07-06T13:53:05.026Z,24.30
2023-07-06T13:55:33.753Z,24.40
2023-07-06T13:58:00.689Z,24.50
2023-07-06T14:00:28.845Z,24.50
2023-07-06T14:02:56.321Z,24.60
2023-07-06T14:05:23.107Z,24.70
2023-07-06T14:07:50.305Z,24.30
2023-07-06T14:10:18.908Z,24.00
2023-07-06T14:12:49.393Z,23.90
2023-07-06T14:15:19.563Z,23.90
2023-07-06T14:17:46.980Z,24.10
2023-07-06T14:20:15.864Z,24.00
2023-07-06T14:22:42.867Z,23.90
2023-07-06T14:25:21.733Z,23.90
2023-07-06T14:27:49.791Z,24.20
2023-07-06T14:30:18.746Z,24.30
2023-07-06T14:32:46.259Z,24.20
2023-07-06T14:35:14.811Z,24.00
2023-07-06T14:37:42.381Z,24.10
2023-07-06T14:40:10.530Z,24.00
2023-07-06T14:42:37.465Z,24.10
2023-07-06T14:45:05.820Z,24.10
2023-07-06T14:47:35.985Z,24.30
2023-07-06T14:50:03.665Z,24.40
2023-07-06T14:52:30.713Z,24.40
2023-07-06T14:54:57.488Z,24.40
2023-07-06T14:57:26.140Z,24.30
2023-07-06T14:59:53.136Z,24.30
2023-07-06T15:02:19.915Z,24.30
2023-07-06T15:04:47.630Z,24.30
2023-07-06T15:07:14.528Z,24.40
2023-07-06T15:09:41.734Z,24.20
2023-07-06T15:12:08.624Z,24.10
2023-07-06T15:14:35.383Z,24.10
2023-07-06T15:17:03.225Z,24.00
2023-07-06T15:19:32.181Z,24.00
2023-07-06T15:21:59.128Z,24.10
2023-07-06T15:24:25.995Z,24.00
2023-07-06T15:26:52.780Z,23.90
2023-07-06T15:29:19.638Z,23.80
2023-07-06T15:31:47.380Z,23.90
2023-07-06T15:34:14.782Z,23.80
2023-07-06T15:36:41.713Z,23.90
2023-07-06T15:39:08.786Z,23.90
2023-07-06T15:41:35.770Z,24.00
2023-07-06T15:44:02.961Z,24.00
2023-07-06T15:46:33.109Z,23.90
2023-07-06T15:49:00.765Z,24.00
2023-07-06T15:51:27.549Z,23.80
2023-07-06T15:53:54.317Z,23.80
2023-07-06T15:56:21.111Z,23.70
2023-07-06T15:59:04.766Z,23.70
2023-07-06T16:01:31.935Z,23.50
2023-07-06T16:03:58.913Z,23.40
2023-07-06T16:06:27.934Z,23.40
2023-07-06T16:08:55.305Z,23.30
2023-07-06T16:11:26.330Z,23.10
2023-07-06T16:14:01.918Z,23.20
2023-07-06T16:16:40.323Z,23.00
2023-07-06T16:19:07.041Z,23.20
2023-07-06T16:21:33.829Z,23.10
2023-07-06T16:24:00.573Z,23.10
2023-07-06T16:26:27.388Z,23.00
2023-07-06T16:28:54.884Z,22.90
2023-07-06T16:31:22.226Z,23.00
2023-07-06T16:33:49.514Z,23.00
2023-07-06T16:36:16.918Z,23.00
2023-07-06T16:38:43.800Z,23.00
2023-07-06T16:41:11.631Z,23.00
2023-07-06T16:43:39.037Z,22.90
2023-07-06T16:46:05.836Z,22.90
2023-07-06T16:48:33.992Z,22.90
2023-07-06T16:51:04.293Z,22.80
2023-07-06T16:53:31.869Z,22.80
2023-07-06T16:55:58.802Z,22.80
2023-07-06T16:58:25.969Z,22.70
2023-07-06T17:00:56.720Z,22.70
2023-07-06T17:03:25.946Z,22.60
2023-07-06T17:05:53.595Z,22.50
2023-07-06T17:08:20.674Z,22.20
2023-07-06T17:10:47.436Z,21.90
2023-07-06T17:13:16.590Z,21.30
2023-07-06T17:15:43.497Z,21.40
2023-07-06T17:18:10.359Z,21.10
2023-07-06T17:20:38.010Z,20.90
2023-07-06T17:23:04.914Z,20.90
2023-07-06T17:25:31.739Z,20.80
2023-07-06T17:27:59.049Z,20.70
2023-07-06T17:30:25.823Z,20.60
2023-07-06T17:32:52.749Z,20.50
2023-07-06T17:35:19.491Z,20.50
2023-07-06T17:37:46.286Z,20.50
2023-07-06T17:40:13.216Z,20.40
2023-07-06T17:42:39.961Z,20.30
2023-07-06T17:45:07.052Z,20.20
2023-07-06T17:47:34.022Z,20.20
2023-07-06T17:50:00.805Z,20.10
2023-07-06T17:52:27.769Z,20.00
2023-07-06T17:54:54.569Z,19.90
2023-07-06T17:57:21.462Z,19.90
2023-07-06T17:59:48.301Z,19.80
2023-07-06T18:02:17.613Z,19.80
2023-07-06T18:04:45.461Z,19.70
2023-07-06T18:07:12.244Z,19.60
2023-07-06T18:09:39.089Z,19.60
2023-07-06T18:12:06.095Z,19.50
2023-07-06T18:14:33.308Z,19.50
2023-07-06T18:17:01.294Z,19.50
2023-07-06T18:19:29.631Z,19.40
2023-07-06T18:21:56.858Z,19.30
2023-07-06T18:24:23.875Z,19.20
2023-07-06T18:26:50.719Z,19.20
2023-07-06T18:29:17.502Z,19.10
2023-07-06T18:31:44.317Z,19.10
2023-07-06T18:34:11.077Z,19.10
2023-07-06T18:36:37.933Z,19.00
2023-07-06T18:39:04.768Z,19.00
2023-07-06T18:41:31.549Z,19.00
2023-07-06T18:43:58.359Z,19.00
2023-07-06T18:46:25.126Z,19.00
2023-07-06T18:48:51.893Z,19.00
2023-07-06T18:51:19.274Z,18.90
2023-07-06T18:53:47.214Z,18.90
2023-07-06T18:56:14.479Z,18.80
2023-07-06T18:58:41.337Z,18.70
2023-07-06T19:01:08.522Z,18.80
2023-07-06T19:03:37.855Z,18.60
2023-07-06T19:06:15.409Z,18.60
2023-07-06T19:08:43.494Z,18.60
2023-07-06T19:11:10.371Z,18.50
2023-07-06T19:13:37.273Z,18.50
2023-07-06T19:16:04.229Z,18.40
2023-07-06T19:18:31.068Z,18.30
2023-07-06T19:20:57.814Z,18.30
2023-07-06T19:23:24.963Z,18.30
2023-07-06T19:25:51.715Z,18.30
2023-07-06T19:28:19.386Z,18.20
2023-07-06T19:30:47.686Z,18.20
2023-07-06T19:33:14.494Z,18.10
2023-07-06T19:35:43.242Z,18.00
2023-07-06T19:38:10.038Z,18.00
2023-07-06T19:40:36.973Z,18.10
2023-07-06T19:43:03.864Z,18.00
2023-07-06T19:45:30.638Z,18.00
2023-07-06T19:47:57.485Z,18.00
2023-07-06T19:50:24.374Z,17.90
2023-07-06T19:52:51.237Z,17.90
2023-07-06T19:55:18.304Z,17.80
2023-07-06T19:57:45.964Z,17.70
2023-07-06T20:00:14.697Z,17.70
2023-07-06T20:02:42.371Z,17.60
2023-07-06T20:05:10.063Z,17.60
2023-07-06T20:07:37.704Z,17.60
2023-07-06T20:10:05.624Z,17.50
2023-07-06T20:12:32.837Z,17.60
2023-07-06T20:14:59.678Z,17.50
2023-07-06T20:17:26.813Z,17.40
2023-07-06T20:19:54.540Z,17.40
2023-07-06T20:22:21.444Z,17.30
2023-07-06T20:24:50.082Z,17.30
2023-07-06T20:27:17.215Z,17.20
2023-07-06T20:29:43.961Z,17.20
2023-07-06T20:32:14.721Z,17.00
2023-07-06T20:34:41.863Z,16.90
2023-07-06T20:37:08.891Z,16.90
2023-07-06T20:39:36.828Z,16.90
2023-07-06T20:42:04.277Z,16.80
2023-07-06T20:44:33.131Z,16.70
2023-07-06T20:47:00.059Z,16.80
2023-07-06T20:49:26.917Z,16.70
2023-07-06T20:51:53.637Z,16.60
2023-07-06T20:54:20.458Z,16.60
2023-07-06T20:56:47.245Z,16.50
2023-07-06T20:59:13.995Z,16.50
2023-07-06T21:01:40.889Z,16.50
2023-07-06T21:04:07.920Z,16.50
2023-07-06T21:06:34.721Z,16.40
2023-07-06T21:09:01.553Z,16.30
2023-07-06T21:11:28.340Z,16.30
2023-07-06T21:13:55.223Z,16.30
2023-07-06T21:16:40.981Z,16.20
2023-07-06T21:19:09.183Z,16.20
2023-07-06T21:21:36.720Z,16.10
2023-07-06T21:24:03.691Z,16.10
2023-07-06T21:26:31.351Z,16.00
2023-07-06T21:28:58.106Z,16.00
2023-07-06T21:31:24.920Z,16.00
2023-07-06T21:33:51.730Z,15.90
2023-07-06T21:36:18.766Z,15.80
2023-07-06T21:38:45.889Z,15.80
2023-07-06T21:41:12.968Z,15.80
2023-07-06T21:43:39.949Z,15.70
2023-07-06T21:46:09.887Z,15.70
2023-07-06T21:48:37.119Z,15.80
2023-07-06T21:51:04.546Z,15.70
2023-07-06T21:53:32.708Z,15.60
2023-07-06T21:56:00.342Z,15.50
2023-07-06T21:58:27.779Z,15.50
2023-07-06T22:00:54.872Z,15.50
2023-07-06T22:03:22.012Z,15.50
2023-07-06T22:05:48.873Z,15.60
2023-07-06T22:08:15.987Z,15.50
2023-07-06T22:10:43.929Z,15.50
2023-07-06T22:13:11.132Z,15.50
2023-07-06T22:15:38.054Z,15.50
2023-07-06T22:18:05.475Z,15.40
2023-07-06T22:20:32.775Z,15.30
2023-07-06T22:22:59.518Z,15.30
2023-07-06T22:25:26.298Z,15.30
2023-07-06T22:27:53.096Z,15.30
2023-07-06T22:30:19.874Z,15.20
2023-07-06T22:32:46.759Z,15.20
2023-07-06T22:35:13.877Z,15.20
2023-07-06T22:37:40.906Z,15.10
2023-07-06T22:40:08.151Z,15.10
2023-07-06T22:42:34.934Z,15.00
2023-07-06T22:45:01.699Z,15.00
2023-07-06T22:47:30.639Z,14.90
2023-07-06T22:50:01.369Z,14.90
2023-07-06T22:52:30.597Z,14.80
2023-07-06T22:54:58.441Z,14.80
2023-07-06T22:57:25.300Z,14.80
2023-07-06T22:59:52.133Z,14.80
2023-07-06T23:02:18.966Z,14.80
2023-07-06T23:04:45.836Z,14.80
2023-07-06T23:07:12.734Z,14.70
2023-07-06T23:09:39.567Z,14.60
2023-07-06T23:12:08.995Z,14.60
2023-07-06T23:14:35.817Z,14.60
2023-07-06T23:17:02.598Z,14.60
2023-07-06T23:19:29.364Z,14.50
2023-07-06T23:21:57.187Z,14.50
2023-07-06T23:24:24.510Z,14.50
2023-07-06T23:26:51.661Z,14.40
2023-07-06T23:29:18.611Z,14.40
2023-07-06T23:31:49.089Z,14.30
2023-07-06T23:34:16.141Z,14.30
2023-07-06T23:36:42.868Z,14.30
2023-07-06T23:39:09.626Z,14.30
2023-07-06T23:41:36.354Z,14.20
2023-07-06T23:44:03.136Z,14.20
2023-07-06T23:46:29.918Z,14.20
2023-07-06T23:48:57.520Z,14.20
2023-07-06T23:51:24.468Z,14.10
2023-07-06T23:53:51.304Z,14.00
2023-07-06T23:56:18.059Z,14.10
2023-07-06T23:58:44.785Z,14.00
